Pagrindinis puslapis
METAR-TAF:

METAR-TAF

Oro uostai :

Tartu, Estija

platuma: 58-18N, ilguma: 026-44E, Aukštis: 59 m

Dabartinis oras

Ataskaita buvo paskelbta 21 minutes, ne 01:50 UTC
Vėjas 12 kt iš Pietų/Pietvakarių
Temperatūra 1°C
Drėgmė 86%
Slėgis 991 hPa
Matomumas 10 km arba daugiau

METAR: EETU 200150Z AUTO 20012KT 9999 OVC013/// 01/M01 Q0991

Laikas: 04:11 (02:11 UTC)

Prognozė

Ataskaita buvo paskelbta 17 valandos ir 11 minutes, ne 09:00 UTC
Prognozė galioja nuo 19 metu 10 UTC su 19 metu 16 UTC
Vėjas 14 kt iš Pietvakarių
Matomumas: 8000 m
Apsiniaukę ne aukštis 500 ft
Laikinai
nuo 19 metu 10 UTC su 19 metu 14 UTC
Matomumas: 2000 m
Su prošvaistėmis ne aukštis 200 ft
Apsiniaukę ne aukštis 400 ft
dulksna, rūkana
Laikinai
nuo 19 metu 14 UTC su 19 metu 16 UTC
Su prošvaistėmis ne aukštis 1400 ft

TAF: EETU 190900Z 1910/1916 23014KT 8000 OVC005 TEMPO 1910/1914 2000 DZ BR BKN002 OVC004 TEMPO 1914/1916 BKN014

Orai ataskaitas ir orų prognozės (METAR, TAF).

turimą stotys yra geltonos ir raudonos taškus žemėlapyje.

Perkelti pele per norėdami pamatyti stoties vardą.

Tada spustelėkite, norėdami matyti oro stebėjimo ir prognozės.

Norėdami pakeisti žemėlapį: spustelėkite ant žalios mygtukų su juodo kryžiaus žemyn,; žalią mygtuką su brūkšneliu, jei norite nutolinti; arba žalių rodyklių gretimoms žemėlapius.


METAR-TAF: